UKON/NLV METAR and TAF weather

Enter ICAO airport designator
Station Type Date Time Source
UKON METAR 2021/09/28 16:30 UTC NOAA

UKON 281630Z 03002MPS 9999 FEW///CB 14/06 Q1024 R04/090075 NOSIG


Station Type Date Time Source
UKON Decoded METAR 2021/09/28 16:30 UTC NOAA

Mykolaiv, Ukraine (UKON) 47-03-29N 031-55-15E
Sep 28, 2021 - 12:30 PM EDT / 2021.09.28 1630 UTC
Wind: from the NNE (030 degrees) at 4 MPH (4 KT):0
Visibility: greater than 7 mile(s):0
Sky conditions: mostly clear
Weather: Cumulonimbus clouds observed
Temperature: 57 F (14 C)
Dew Point: 42 F (6 C)
Relative Humidity: 58%
Pressure (altimeter): 30.24 in. Hg (1024 hPa)
ob: UKON 281630Z 03002MPS 9999 FEW///CB 14/06 Q1024 R04/090075 NOSIG
cycle: 16

Station Type Date Time Source
UKON TAF 2018/11/06 15:06 UTC NOAA

TAF
AMD TAF
AMD UKON 061502Z 0615/0724 CNL

Example: see airport list